sensor_id;sensor_type;location;lat;lon;timestamp;P1;durP1;ratioP1;P2;durP2;ratioP2
20988;SDS011;10653;47.052;15.410;2023-09-19T00:01:12;11.90;;;7.23;;
20988;SDS011;10653;47.052;15.410;2023-09-19T00:03:39;9.80;;;5.53;;
20988;SDS011;10653;47.052;15.410;2023-09-19T00:06:06;14.17;;;7.50;;
20988;SDS011;10653;47.052;15.410;2023-09-19T00:08:33;12.60;;;10.20;;
20988;SDS011;10653;47.052;15.410;2023-09-19T00:10:59;12.80;;;11.50;;
20988;SDS011;10653;47.052;15.410;2023-09-19T00:13:31;9.80;;;8.40;;
20988;SDS011;10653;47.052;15.410;2023-09-19T00:15:57;10.90;;;8.90;;
20988;SDS011;10653;47.052;15.410;2023-09-19T00:18:24;9.10;;;8.17;;
20988;SDS011;10653;47.052;15.410;2023-09-19T00:21:00;12.53;;;6.87;;
20988;SDS011;10653;47.052;15.410;2023-09-19T00:23:26;8.23;;;6.40;;
20988;SDS011;10653;47.052;15.410;2023-09-19T00:25:53;6.77;;;6.03;;
20988;SDS011;10653;47.052;15.410;2023-09-19T00:28:22;10.63;;;5.87;;
20988;SDS011;10653;47.052;15.410;2023-09-19T00:30:48;10.87;;;5.70;;
20988;SDS011;10653;47.052;15.410;2023-09-19T00:33:19;8.20;;;5.07;;
20988;SDS011;10653;47.052;15.410;2023-09-19T00:38:14;6.47;;;4.10;;
20988;SDS011;10653;47.052;15.410;2023-09-19T00:40:45;9.17;;;4.30;;
20988;SDS011;10653;47.052;15.410;2023-09-19T00:43:11;4.87;;;3.57;;
20988;SDS011;10653;47.052;15.410;2023-09-19T00:45:37;5.23;;;3.20;;
20988;SDS011;10653;47.052;15.410;2023-09-19T00:48:04;3.83;;;3.00;;
20988;SDS011;10653;47.052;15.410;2023-09-19T00:50:34;4.93;;;2.53;;
20988;SDS011;10653;47.052;15.410;2023-09-19T00:53:00;7.70;;;3.33;;
20988;SDS011;10653;47.052;15.410;2023-09-19T00:55:30;4.30;;;2.80;;
20988;SDS011;10653;47.052;15.410;2023-09-19T00:57:57;2.37;;;2.17;;
20988;SDS011;10653;47.052;15.410;2023-09-19T01:00:23;2.83;;;2.20;;
20988;SDS011;10653;47.052;15.410;2023-09-19T01:02:50;2.87;;;2.67;;
20988;SDS011;10653;47.052;15.410;2023-09-19T01:05:16;2.57;;;2.17;;
20988;SDS011;10653;47.052;15.410;2023-09-19T01:07:43;3.10;;;2.27;;
20988;SDS011;10653;47.052;15.410;2023-09-19T01:10:14;4.80;;;2.60;;
20988;SDS011;10653;47.052;15.410;2023-09-19T01:29:08;3.07;;;2.63;;
20988;SDS011;10653;47.052;15.410;2023-09-19T01:31:38;2.93;;;2.27;;
20988;SDS011;10653;47.052;15.410;2023-09-19T01:34:05;5.27;;;2.07;;
20988;SDS011;10653;47.052;15.410;2023-09-19T01:36:33;3.43;;;1.87;;
20988;SDS011;10653;47.052;15.410;2023-09-19T01:39:01;2.20;;;2.00;;
20988;SDS011;10653;47.052;15.410;2023-09-19T01:44:23;4.63;;;2.33;;
20988;SDS011;10653;47.052;15.410;2023-09-19T01:46:50;2.60;;;1.73;;
20988;SDS011;10653;47.052;15.410;2023-09-19T01:49:53;8.63;;;2.27;;
20988;SDS011;10653;47.052;15.410;2023-09-19T01:54:51;3.43;;;2.13;;
20988;SDS011;10653;47.052;15.410;2023-09-19T01:57:30;2.73;;;2.17;;
20988;SDS011;10653;47.052;15.410;2023-09-19T02:00:03;4.37;;;2.50;;
20988;SDS011;10653;47.052;15.410;2023-09-19T02:02:33;4.43;;;3.37;;
20988;SDS011;10653;47.052;15.410;2023-09-19T02:04:59;3.00;;;1.90;;
20988;SDS011;10653;47.052;15.410;2023-09-19T02:07:25;2.77;;;1.80;;
20988;SDS011;10653;47.052;15.410;2023-09-19T02:09:52;3.37;;;1.77;;
20988;SDS011;10653;47.052;15.410;2023-09-19T02:12:18;2.93;;;1.53;;
20988;SDS011;10653;47.052;15.410;2023-09-19T02:14:44;2.23;;;1.70;;
20988;SDS011;10653;47.052;15.410;2023-09-19T02:17:10;4.43;;;2.03;;
20988;SDS011;10653;47.052;15.410;2023-09-19T02:19:37;2.80;;;1.80;;
20988;SDS011;10653;47.052;15.410;2023-09-19T02:22:04;2.73;;;2.17;;
20988;SDS011;10653;47.052;15.410;2023-09-19T02:24:32;2.00;;;1.77;;
20988;SDS011;10653;47.052;15.410;2023-09-19T02:26:58;2.87;;;2.00;;
20988;SDS011;10653;47.052;15.410;2023-09-19T02:29:28;2.30;;;1.90;;
20988;SDS011;10653;47.052;15.410;2023-09-19T02:31:55;4.90;;;1.80;;
20988;SDS011;10653;47.052;15.410;2023-09-19T02:34:21;2.00;;;1.80;;
20988;SDS011;10653;47.052;15.410;2023-09-19T02:36:47;3.13;;;1.77;;
20988;SDS011;10653;47.052;15.410;2023-09-19T02:39:13;3.50;;;2.07;;
20988;SDS011;10653;47.052;15.410;2023-09-19T02:41:40;6.00;;;1.80;;
20988;SDS011;10653;47.052;15.410;2023-09-19T02:44:06;3.03;;;2.20;;
20988;SDS011;10653;47.052;15.410;2023-09-19T02:46:36;3.60;;;1.77;;
20988;SDS011;10653;47.052;15.410;2023-09-19T02:49:02;3.40;;;2.20;;
20988;SDS011;10653;47.052;15.410;2023-09-19T02:51:31;4.53;;;1.90;;
20988;SDS011;10653;47.052;15.410;2023-09-19T02:54:01;4.00;;;1.70;;
20988;SDS011;10653;47.052;15.410;2023-09-19T02:56:28;3.70;;;2.13;;
20988;SDS011;10653;47.052;15.410;2023-09-19T02:58:55;3.00;;;1.60;;
20988;SDS011;10653;47.052;15.410;2023-09-19T03:01:22;3.20;;;1.80;;
20988;SDS011;10653;47.052;15.410;2023-09-19T03:03:48;2.70;;;1.80;;
20988;SDS011;10653;47.052;15.410;2023-09-19T03:06:14;2.00;;;1.40;;
20988;SDS011;10653;47.052;15.410;2023-09-19T03:08:42;4.40;;;1.67;;
20988;SDS011;10653;47.052;15.410;2023-09-19T03:11:08;2.00;;;1.07;;
20988;SDS011;10653;47.052;15.410;2023-09-19T03:13:36;2.50;;;1.33;;
20988;SDS011;10653;47.052;15.410;2023-09-19T03:16:03;2.87;;;1.47;;
20988;SDS011;10653;47.052;15.410;2023-09-19T03:18:35;3.23;;;1.00;;
20988;SDS011;10653;47.052;15.410;2023-09-19T03:21:01;2.00;;;1.57;;
20988;SDS011;10653;47.052;15.410;2023-09-19T03:23:28;1.93;;;1.40;;
20988;SDS011;10653;47.052;15.410;2023-09-19T03:25:54;2.13;;;1.30;;
20988;SDS011;10653;47.052;15.410;2023-09-19T03:28:21;1.33;;;1.17;;
20988;SDS011;10653;47.052;15.410;2023-09-19T03:31:00;3.63;;;1.53;;
20988;SDS011;10653;47.052;15.410;2023-09-19T03:33:26;1.93;;;1.10;;
20988;SDS011;10653;47.052;15.410;2023-09-19T03:35:52;2.60;;;1.23;;
20988;SDS011;10653;47.052;15.410;2023-09-19T03:38:19;2.33;;;1.20;;
20988;SDS011;10653;47.052;15.410;2023-09-19T03:40:45;4.00;;;1.23;;
20988;SDS011;10653;47.052;15.410;2023-09-19T03:43:11;3.73;;;1.37;;
20988;SDS011;10653;47.052;15.410;2023-09-19T03:45:37;2.37;;;1.30;;
20988;SDS011;10653;47.052;15.410;2023-09-19T03:48:08;1.93;;;1.20;;
20988;SDS011;10653;47.052;15.410;2023-09-19T03:50:34;1.60;;;1.20;;
20988;SDS011;10653;47.052;15.410;2023-09-19T03:53:00;3.47;;;1.70;;
20988;SDS011;10653;47.052;15.410;2023-09-19T03:55:26;2.63;;;1.40;;
20988;SDS011;10653;47.052;15.410;2023-09-19T03:57:52;2.13;;;1.53;;
20988;SDS011;10653;47.052;15.410;2023-09-19T04:00:18;2.07;;;1.80;;
20988;SDS011;10653;47.052;15.410;2023-09-19T04:02:47;4.23;;;2.43;;
20988;SDS011;10653;47.052;15.410;2023-09-19T04:05:13;2.03;;;1.87;;
20988;SDS011;10653;47.052;15.410;2023-09-19T04:07:39;2.20;;;1.90;;
20988;SDS011;10653;47.052;15.410;2023-09-19T04:10:05;2.10;;;1.77;;
20988;SDS011;10653;47.052;15.410;2023-09-19T04:12:34;5.30;;;3.57;;
20988;SDS011;10653;47.052;15.410;2023-09-19T04:15:00;2.47;;;1.60;;
20988;SDS011;10653;47.052;15.410;2023-09-19T04:17:26;2.73;;;1.70;;
20988;SDS011;10653;47.052;15.410;2023-09-19T04:19:52;3.77;;;2.10;;
20988;SDS011;10653;47.052;15.410;2023-09-19T04:22:18;3.40;;;1.60;;
20988;SDS011;10653;47.052;15.410;2023-09-19T04:24:44;2.57;;;1.87;;
20988;SDS011;10653;47.052;15.410;2023-09-19T04:27:10;4.27;;;1.57;;
20988;SDS011;10653;47.052;15.410;2023-09-19T04:29:39;2.80;;;2.03;;
20988;SDS011;10653;47.052;15.410;2023-09-19T04:32:06;3.43;;;1.33;;
20988;SDS011;10653;47.052;15.410;2023-09-19T04:34:33;3.43;;;2.30;;
20988;SDS011;10653;47.052;15.410;2023-09-19T04:36:59;2.07;;;1.87;;
20988;SDS011;10653;47.052;15.410;2023-09-19T04:39:26;3.03;;;1.60;;
20988;SDS011;10653;47.052;15.410;2023-09-19T04:41:52;2.77;;;1.73;;
20988;SDS011;10653;47.052;15.410;2023-09-19T04:44:18;2.97;;;1.63;;
20988;SDS011;10653;47.052;15.410;2023-09-19T04:46:44;2.10;;;1.60;;
20988;SDS011;10653;47.052;15.410;2023-09-19T04:49:11;2.90;;;2.20;;
20988;SDS011;10653;47.052;15.410;2023-09-19T04:51:37;2.60;;;1.93;;
20988;SDS011;10653;47.052;15.410;2023-09-19T04:54:04;3.43;;;2.50;;
20988;SDS011;10653;47.052;15.410;2023-09-19T04:56:30;4.00;;;2.00;;
20988;SDS011;10653;47.052;15.410;2023-09-19T04:58:57;3.37;;;1.70;;
20988;SDS011;10653;47.052;15.410;2023-09-19T05:01:23;3.20;;;1.60;;
20988;SDS011;10653;47.052;15.410;2023-09-19T05:03:49;3.13;;;1.80;;
20988;SDS011;10653;47.052;15.410;2023-09-19T05:06:17;3.50;;;2.07;;
20988;SDS011;10653;47.052;15.410;2023-09-19T05:08:45;1.97;;;1.63;;
20988;SDS011;10653;47.052;15.410;2023-09-19T05:11:12;3.10;;;1.60;;
20988;SDS011;10653;47.052;15.410;2023-09-19T05:13:38;2.80;;;1.60;;
20988;SDS011;10653;47.052;15.410;2023-09-19T05:16:04;2.90;;;1.73;;
20988;SDS011;10653;47.052;15.410;2023-09-19T05:18:30;2.60;;;2.20;;
20988;SDS011;10653;47.052;15.410;2023-09-19T05:20:56;2.67;;;2.13;;
20988;SDS011;10653;47.052;15.410;2023-09-19T05:23:22;2.47;;;2.10;;
20988;SDS011;10653;47.052;15.410;2023-09-19T05:25:48;2.83;;;2.00;;
20988;SDS011;10653;47.052;15.410;2023-09-19T05:28:14;5.03;;;2.13;;
20988;SDS011;10653;47.052;15.410;2023-09-19T05:30:40;3.53;;;2.47;;
20988;SDS011;10653;47.052;15.410;2023-09-19T05:33:09;3.23;;;2.10;;
20988;SDS011;10653;47.052;15.410;2023-09-19T05:35:36;2.23;;;2.00;;
20988;SDS011;10653;47.052;15.410;2023-09-19T05:38:04;2.40;;;2.10;;
20988;SDS011;10653;47.052;15.410;2023-09-19T05:40:33;2.53;;;2.33;;
20988;SDS011;10653;47.052;15.410;2023-09-19T05:43:00;2.73;;;2.40;;
20988;SDS011;10653;47.052;15.410;2023-09-19T05:45:27;2.50;;;2.27;;
20988;SDS011;10653;47.052;15.410;2023-09-19T05:47:54;2.60;;;1.83;;
20988;SDS011;10653;47.052;15.410;2023-09-19T05:50:26;3.53;;;2.00;;
20988;SDS011;10653;47.052;15.410;2023-09-19T05:52:52;5.07;;;3.70;;
20988;SDS011;10653;47.052;15.410;2023-09-19T05:55:18;2.53;;;2.10;;
20988;SDS011;10653;47.052;15.410;2023-09-19T05:57:49;5.00;;;2.50;;
20988;SDS011;10653;47.052;15.410;2023-09-19T06:00:15;2.30;;;1.83;;
20988;SDS011;10653;47.052;15.410;2023-09-19T06:02:42;2.73;;;2.37;;
20988;SDS011;10653;47.052;15.410;2023-09-19T06:05:10;2.63;;;2.27;;
20988;SDS011;10653;47.052;15.410;2023-09-19T06:07:36;3.40;;;2.30;;
20988;SDS011;10653;47.052;15.410;2023-09-19T06:10:05;3.23;;;2.03;;
20988;SDS011;10653;47.052;15.410;2023-09-19T06:12:33;3.37;;;2.50;;
20988;SDS011;10653;47.052;15.410;2023-09-19T06:15:00;3.20;;;2.90;;
20988;SDS011;10653;47.052;15.410;2023-09-19T06:17:26;2.90;;;1.90;;
20988;SDS011;10653;47.052;15.410;2023-09-19T06:19:53;2.50;;;1.90;;
20988;SDS011;10653;47.052;15.410;2023-09-19T06:22:20;2.77;;;2.20;;
20988;SDS011;10653;47.052;15.410;2023-09-19T06:24:46;3.60;;;2.13;;
20988;SDS011;10653;47.052;15.410;2023-09-19T06:27:13;2.73;;;1.90;;
20988;SDS011;10653;47.052;15.410;2023-09-19T06:29:39;2.30;;;1.67;;
20988;SDS011;10653;47.052;15.410;2023-09-19T06:32:08;1.63;;;1.37;;
20988;SDS011;10653;47.052;15.410;2023-09-19T06:34:35;3.40;;;2.03;;
20988;SDS011;10653;47.052;15.410;2023-09-19T06:37:01;6.20;;;1.40;;
20988;SDS011;10653;47.052;15.410;2023-09-19T06:39:28;4.83;;;1.80;;
20988;SDS011;10653;47.052;15.410;2023-09-19T06:41:54;2.07;;;1.80;;
20988;SDS011;10653;47.052;15.410;2023-09-19T06:44:20;2.03;;;1.80;;
20988;SDS011;10653;47.052;15.410;2023-09-19T06:46:49;1.60;;;1.50;;
20988;SDS011;10653;47.052;15.410;2023-09-19T06:49:19;2.63;;;2.00;;
20988;SDS011;10653;47.052;15.410;2023-09-19T06:51:45;4.87;;;2.20;;
20988;SDS011;10653;47.052;15.410;2023-09-19T06:54:11;1.80;;;1.70;;
20988;SDS011;10653;47.052;15.410;2023-09-19T06:56:37;2.47;;;2.00;;
20988;SDS011;10653;47.052;15.410;2023-09-19T06:59:03;2.60;;;1.60;;
20988;SDS011;10653;47.052;15.410;2023-09-19T07:01:32;2.20;;;1.83;;
20988;SDS011;10653;47.052;15.410;2023-09-19T07:03:58;2.30;;;1.97;;
20988;SDS011;10653;47.052;15.410;2023-09-19T07:06:24;3.53;;;2.20;;
20988;SDS011;10653;47.052;15.410;2023-09-19T07:08:50;3.10;;;2.60;;
20988;SDS011;10653;47.052;15.410;2023-09-19T07:11:16;3.80;;;2.23;;
20988;SDS011;10653;47.052;15.410;2023-09-19T07:13:42;2.73;;;1.70;;
20988;SDS011;10653;47.052;15.410;2023-09-19T07:16:08;4.73;;;2.03;;
20988;SDS011;10653;47.052;15.410;2023-09-19T07:18:52;2.50;;;2.00;;
20988;SDS011;10653;47.052;15.410;2023-09-19T07:21:18;1.77;;;1.53;;
20988;SDS011;10653;47.052;15.410;2023-09-19T07:23:44;2.97;;;2.17;;
20988;SDS011;10653;47.052;15.410;2023-09-19T07:26:10;3.00;;;1.67;;
20988;SDS011;10653;47.052;15.410;2023-09-19T07:28:35;2.40;;;1.90;;
20988;SDS011;10653;47.052;15.410;2023-09-19T07:31:02;2.30;;;1.70;;
20988;SDS011;10653;47.052;15.410;2023-09-19T07:33:29;2.40;;;1.80;;
20988;SDS011;10653;47.052;15.410;2023-09-19T07:35:56;3.27;;;2.33;;
20988;SDS011;10653;47.052;15.410;2023-09-19T07:38:22;3.47;;;1.60;;
20988;SDS011;10653;47.052;15.410;2023-09-19T07:40:48;7.07;;;2.00;;
20988;SDS011;10653;47.052;15.410;2023-09-19T07:43:14;2.90;;;2.23;;
20988;SDS011;10653;47.052;15.410;2023-09-19T07:45:40;3.30;;;2.10;;
20988;SDS011;10653;47.052;15.410;2023-09-19T07:48:06;4.10;;;1.73;;
20988;SDS011;10653;47.052;15.410;2023-09-19T07:50:39;3.43;;;2.07;;
20988;SDS011;10653;47.052;15.410;2023-09-19T07:53:05;4.40;;;2.23;;
20988;SDS011;10653;47.052;15.410;2023-09-19T07:55:31;3.13;;;2.10;;
20988;SDS011;10653;47.052;15.410;2023-09-19T07:57:58;2.43;;;2.23;;
20988;SDS011;10653;47.052;15.410;2023-09-19T08:00:25;3.23;;;2.20;;
20988;SDS011;10653;47.052;15.410;2023-09-19T08:02:51;3.60;;;1.80;;
20988;SDS011;10653;47.052;15.410;2023-09-19T08:05:17;4.03;;;2.17;;
20988;SDS011;10653;47.052;15.410;2023-09-19T08:07:44;2.20;;;1.80;;
20988;SDS011;10653;47.052;15.410;2023-09-19T08:10:21;3.30;;;2.00;;
20988;SDS011;10653;47.052;15.410;2023-09-19T08:12:48;5.10;;;2.00;;
20988;SDS011;10653;47.052;15.410;2023-09-19T08:15:17;2.20;;;2.00;;
20988;SDS011;10653;47.052;15.410;2023-09-19T08:17:46;2.90;;;1.90;;
20988;SDS011;10653;47.052;15.410;2023-09-19T08:20:13;5.13;;;3.50;;
20988;SDS011;10653;47.052;15.410;2023-09-19T08:22:52;3.30;;;2.70;;
20988;SDS011;10653;47.052;15.410;2023-09-19T08:25:20;2.97;;;2.10;;
20988;SDS011;10653;47.052;15.410;2023-09-19T08:27:47;4.77;;;2.23;;
20988;SDS011;10653;47.052;15.410;2023-09-19T08:30:17;2.53;;;2.33;;
20988;SDS011;10653;47.052;15.410;2023-09-19T08:32:45;4.17;;;2.50;;
20988;SDS011;10653;47.052;15.410;2023-09-19T08:35:11;6.30;;;2.53;;
20988;SDS011;10653;47.052;15.410;2023-09-19T08:37:37;6.20;;;2.10;;
20988;SDS011;10653;47.052;15.410;2023-09-19T08:40:03;2.73;;;2.10;;
20988;SDS011;10653;47.052;15.410;2023-09-19T08:42:46;3.60;;;2.80;;
20988;SDS011;10653;47.052;15.410;2023-09-19T08:45:13;4.50;;;2.60;;
20988;SDS011;10653;47.052;15.410;2023-09-19T08:47:42;5.10;;;2.80;;
20988;SDS011;10653;47.052;15.410;2023-09-19T08:50:23;4.13;;;2.53;;
20988;SDS011;10653;47.052;15.410;2023-09-19T08:52:52;4.10;;;2.43;;
20988;SDS011;10653;47.052;15.410;2023-09-19T08:55:22;3.97;;;1.70;;
20988;SDS011;10653;47.052;15.410;2023-09-19T08:57:52;2.80;;;2.27;;
20988;SDS011;10653;47.052;15.410;2023-09-19T09:00:23;3.00;;;1.90;;
20988;SDS011;10653;47.052;15.410;2023-09-19T09:02:50;4.07;;;2.30;;
20988;SDS011;10653;47.052;15.410;2023-09-19T09:05:19;4.30;;;2.20;;
20988;SDS011;10653;47.052;15.410;2023-09-19T09:07:48;3.80;;;2.10;;
20988;SDS011;10653;47.052;15.410;2023-09-19T09:10:17;2.67;;;2.13;;
20988;SDS011;10653;47.052;15.410;2023-09-19T09:12:43;12.37;;;2.50;;
20988;SDS011;10653;47.052;15.410;2023-09-19T09:15:09;2.90;;;2.07;;
20988;SDS011;10653;47.052;15.410;2023-09-19T09:17:37;5.80;;;2.30;;
20988;SDS011;10653;47.052;15.410;2023-09-19T09:20:03;2.83;;;1.90;;
20988;SDS011;10653;47.052;15.410;2023-09-19T09:22:35;3.03;;;2.40;;
20988;SDS011;10653;47.052;15.410;2023-09-19T09:25:05;8.33;;;3.33;;
20988;SDS011;10653;47.052;15.410;2023-09-19T09:27:31;4.63;;;2.57;;
20988;SDS011;10653;47.052;15.410;2023-09-19T09:29:59;2.70;;;1.93;;
20988;SDS011;10653;47.052;15.410;2023-09-19T09:32:28;2.27;;;2.00;;
20988;SDS011;10653;47.052;15.410;2023-09-19T09:34:59;3.80;;;2.30;;
20988;SDS011;10653;47.052;15.410;2023-09-19T09:37:25;3.53;;;2.30;;
20988;SDS011;10653;47.052;15.410;2023-09-19T09:40:02;5.53;;;2.20;;
20988;SDS011;10653;47.052;15.410;2023-09-19T09:42:40;3.47;;;2.23;;
20988;SDS011;10653;47.052;15.410;2023-09-19T09:47:53;4.70;;;2.40;;
20988;SDS011;10653;47.052;15.410;2023-09-19T09:50:23;2.83;;;2.57;;
20988;SDS011;10653;47.052;15.410;2023-09-19T09:52:54;2.70;;;2.50;;
20988;SDS011;10653;47.052;15.410;2023-09-19T09:55:27;3.60;;;2.77;;
20988;SDS011;10653;47.052;15.410;2023-09-19T10:00:51;6.37;;;2.93;;
20988;SDS011;10653;47.052;15.410;2023-09-19T10:03:23;6.93;;;3.20;;
20988;SDS011;10653;47.052;15.410;2023-09-19T10:05:57;6.20;;;2.90;;
20988;SDS011;10653;47.052;15.410;2023-09-19T10:08:23;3.77;;;3.47;;
20988;SDS011;10653;47.052;15.410;2023-09-19T10:10:51;4.40;;;3.70;;
20988;SDS011;10653;47.052;15.410;2023-09-19T10:13:17;4.13;;;3.27;;
20988;SDS011;10653;47.052;15.410;2023-09-19T10:15:50;3.97;;;3.30;;
20988;SDS011;10653;47.052;15.410;2023-09-19T10:18:26;5.60;;;3.77;;
20988;SDS011;10653;47.052;15.410;2023-09-19T10:20:55;5.10;;;2.57;;
20988;SDS011;10653;47.052;15.410;2023-09-19T10:23:22;3.53;;;2.20;;
20988;SDS011;10653;47.052;15.410;2023-09-19T10:25:49;4.60;;;1.90;;
20988;SDS011;10653;47.052;15.410;2023-09-19T10:28:16;2.83;;;2.17;;
20988;SDS011;10653;47.052;15.410;2023-09-19T10:30:47;6.07;;;2.43;;
20988;SDS011;10653;47.052;15.410;2023-09-19T10:33:15;4.40;;;1.60;;
20988;SDS011;10653;47.052;15.410;2023-09-19T10:35:42;3.07;;;1.50;;
20988;SDS011;10653;47.052;15.410;2023-09-19T10:38:09;4.57;;;2.43;;
20988;SDS011;10653;47.052;15.410;2023-09-19T10:40:36;2.43;;;1.50;;
20988;SDS011;10653;47.052;15.410;2023-09-19T10:43:06;4.97;;;1.57;;
20988;SDS011;10653;47.052;15.410;2023-09-19T10:45:34;2.87;;;1.10;;
20988;SDS011;10653;47.052;15.410;2023-09-19T10:48:00;1.73;;;1.30;;
20988;SDS011;10653;47.052;15.410;2023-09-19T10:50:41;1.87;;;1.20;;
20988;SDS011;10653;47.052;15.410;2023-09-19T10:53:10;3.80;;;2.10;;
20988;SDS011;10653;47.052;15.410;2023-09-19T10:55:37;2.00;;;1.50;;
20988;SDS011;10653;47.052;15.410;2023-09-19T10:58:04;3.30;;;1.60;;
20988;SDS011;10653;47.052;15.410;2023-09-19T11:00:49;1.60;;;1.30;;
20988;SDS011;10653;47.052;15.410;2023-09-19T11:03:19;1.90;;;1.50;;
20988;SDS011;10653;47.052;15.410;2023-09-19T11:14:13;3.53;;;1.53;;
20988;SDS011;10653;47.052;15.410;2023-09-19T11:16:39;2.30;;;1.17;;
20988;SDS011;10653;47.052;15.410;2023-09-19T11:19:05;5.77;;;2.07;;
20988;SDS011;10653;47.052;15.410;2023-09-19T11:26:44;1.80;;;1.40;;
20988;SDS011;10653;47.052;15.410;2023-09-19T11:29:26;2.20;;;1.03;;
20988;SDS011;10653;47.052;15.410;2023-09-19T11:31:53;2.63;;;1.70;;
20988;SDS011;10653;47.052;15.410;2023-09-19T11:34:54;1.30;;;1.00;;
20988;SDS011;10653;47.052;15.410;2023-09-19T11:42:44;1.70;;;1.30;;
20988;SDS011;10653;47.052;15.410;2023-09-19T11:47:57;2.10;;;1.67;;
20988;SDS011;10653;47.052;15.410;2023-09-19T11:50:25;2.67;;;1.70;;
20988;SDS011;10653;47.052;15.410;2023-09-19T11:52:51;5.60;;;1.30;;
20988;SDS011;10653;47.052;15.410;2023-09-19T11:55:18;1.73;;;1.33;;
20988;SDS011;10653;47.052;15.410;2023-09-19T11:57:46;2.27;;;1.40;;
20988;SDS011;10653;47.052;15.410;2023-09-19T12:00:18;1.60;;;1.07;;
20988;SDS011;10653;47.052;15.410;2023-09-19T12:02:46;3.03;;;1.50;;
20988;SDS011;10653;47.052;15.410;2023-09-19T12:05:13;2.37;;;1.30;;
20988;SDS011;10653;47.052;15.410;2023-09-19T12:07:43;2.50;;;1.20;;
20988;SDS011;10653;47.052;15.410;2023-09-19T12:10:13;1.97;;;1.37;;
20988;SDS011;10653;47.052;15.410;2023-09-19T12:12:44;2.33;;;1.40;;
20988;SDS011;10653;47.052;15.410;2023-09-19T12:15:14;3.70;;;1.67;;
20988;SDS011;10653;47.052;15.410;2023-09-19T12:17:41;2.37;;;1.40;;
20988;SDS011;10653;47.052;15.410;2023-09-19T12:20:09;3.53;;;1.70;;
20988;SDS011;10653;47.052;15.410;2023-09-19T12:22:39;2.43;;;1.60;;
20988;SDS011;10653;47.052;15.410;2023-09-19T12:25:05;3.20;;;1.67;;
20988;SDS011;10653;47.052;15.410;2023-09-19T12:27:40;5.63;;;1.50;;
20988;SDS011;10653;47.052;15.410;2023-09-19T12:30:09;2.30;;;1.60;;
20988;SDS011;10653;47.052;15.410;2023-09-19T12:32:35;4.03;;;1.80;;
20988;SDS011;10653;47.052;15.410;2023-09-19T12:35:01;2.87;;;1.80;;
20988;SDS011;10653;47.052;15.410;2023-09-19T12:37:32;2.57;;;1.40;;
20988;SDS011;10653;47.052;15.410;2023-09-19T12:40:07;2.37;;;1.53;;
20988;SDS011;10653;47.052;15.410;2023-09-19T12:42:42;2.80;;;1.50;;
20988;SDS011;10653;47.052;15.410;2023-09-19T12:45:09;2.60;;;1.80;;
20988;SDS011;10653;47.052;15.410;2023-09-19T12:47:38;2.43;;;1.60;;
20988;SDS011;10653;47.052;15.410;2023-09-19T12:50:11;3.70;;;1.40;;
20988;SDS011;10653;47.052;15.410;2023-09-19T12:52:52;2.87;;;1.30;;
20988;SDS011;10653;47.052;15.410;2023-09-19T13:00:31;4.50;;;1.70;;
20988;SDS011;10653;47.052;15.410;2023-09-19T13:06:01;4.87;;;1.90;;
20988;SDS011;10653;47.052;15.410;2023-09-19T13:08:33;1.90;;;1.40;;
20988;SDS011;10653;47.052;15.410;2023-09-19T13:13:32;1.60;;;1.20;;
20988;SDS011;10653;47.052;15.410;2023-09-19T13:16:01;1.80;;;1.20;;
20988;SDS011;10653;47.052;15.410;2023-09-19T13:18:28;4.13;;;1.53;;
20988;SDS011;10653;47.052;15.410;2023-09-19T13:21:10;1.90;;;1.20;;
20988;SDS011;10653;47.052;15.410;2023-09-19T13:23:47;1.50;;;1.30;;
20988;SDS011;10653;47.052;15.410;2023-09-19T13:26:13;1.70;;;1.10;;
20988;SDS011;10653;47.052;15.410;2023-09-19T13:28:40;2.20;;;1.40;;
20988;SDS011;10653;47.052;15.410;2023-09-19T13:31:06;3.77;;;1.60;;
20988;SDS011;10653;47.052;15.410;2023-09-19T13:33:33;1.50;;;1.20;;
20988;SDS011;10653;47.052;15.410;2023-09-19T13:36:00;1.80;;;1.10;;
20988;SDS011;10653;47.052;15.410;2023-09-19T13:38:26;2.97;;;1.63;;
20988;SDS011;10653;47.052;15.410;2023-09-19T13:40:53;3.50;;;1.50;;
20988;SDS011;10653;47.052;15.410;2023-09-19T13:43:19;3.00;;;1.30;;
20988;SDS011;10653;47.052;15.410;2023-09-19T13:45:47;2.63;;;1.40;;
20988;SDS011;10653;47.052;15.410;2023-09-19T13:48:13;4.17;;;1.30;;
20988;SDS011;10653;47.052;15.410;2023-09-19T13:50:39;3.43;;;1.00;;
20988;SDS011;10653;47.052;15.410;2023-09-19T13:53:07;3.63;;;1.50;;
20988;SDS011;10653;47.052;15.410;2023-09-19T13:55:34;2.30;;;1.60;;
20988;SDS011;10653;47.052;15.410;2023-09-19T13:58:00;3.13;;;1.53;;
20988;SDS011;10653;47.052;15.410;2023-09-19T14:00:26;2.77;;;1.43;;
20988;SDS011;10653;47.052;15.410;2023-09-19T14:02:53;1.63;;;1.13;;
20988;SDS011;10653;47.052;15.410;2023-09-19T14:05:19;2.70;;;1.60;;
20988;SDS011;10653;47.052;15.410;2023-09-19T14:07:45;2.47;;;1.40;;
20988;SDS011;10653;47.052;15.410;2023-09-19T14:10:11;1.87;;;1.27;;
20988;SDS011;10653;47.052;15.410;2023-09-19T14:12:38;3.27;;;1.40;;
20988;SDS011;10653;47.052;15.410;2023-09-19T14:15:07;2.73;;;1.53;;
20988;SDS011;10653;47.052;15.410;2023-09-19T14:17:34;3.43;;;1.50;;
20988;SDS011;10653;47.052;15.410;2023-09-19T14:20:00;1.50;;;1.10;;
20988;SDS011;10653;47.052;15.410;2023-09-19T14:22:26;1.83;;;1.33;;
20988;SDS011;10653;47.052;15.410;2023-09-19T14:24:52;2.20;;;1.30;;
20988;SDS011;10653;47.052;15.410;2023-09-19T14:27:18;3.60;;;1.47;;
20988;SDS011;10653;47.052;15.410;2023-09-19T14:29:44;1.70;;;1.50;;
20988;SDS011;10653;47.052;15.410;2023-09-19T14:32:10;2.60;;;1.90;;
20988;SDS011;10653;47.052;15.410;2023-09-19T14:34:36;2.63;;;1.60;;
20988;SDS011;10653;47.052;15.410;2023-09-19T14:37:07;2.73;;;1.27;;
20988;SDS011;10653;47.052;15.410;2023-09-19T14:39:33;2.70;;;1.77;;
20988;SDS011;10653;47.052;15.410;2023-09-19T14:41:59;2.10;;;1.60;;
20988;SDS011;10653;47.052;15.410;2023-09-19T14:44:25;2.27;;;1.40;;
20988;SDS011;10653;47.052;15.410;2023-09-19T14:46:51;3.50;;;1.63;;
20988;SDS011;10653;47.052;15.410;2023-09-19T14:49:17;1.80;;;1.40;;
20988;SDS011;10653;47.052;15.410;2023-09-19T14:51:43;2.23;;;1.67;;
20988;SDS011;10653;47.052;15.410;2023-09-19T14:54:10;2.40;;;1.73;;
20988;SDS011;10653;47.052;15.410;2023-09-19T14:56:36;2.30;;;1.17;;
20988;SDS011;10653;47.052;15.410;2023-09-19T14:59:02;2.73;;;1.43;;
20988;SDS011;10653;47.052;15.410;2023-09-19T15:01:29;2.03;;;1.63;;
20988;SDS011;10653;47.052;15.410;2023-09-19T15:03:55;4.13;;;1.60;;
20988;SDS011;10653;47.052;15.410;2023-09-19T15:06:21;2.37;;;1.40;;
20988;SDS011;10653;47.052;15.410;2023-09-19T15:08:48;1.90;;;1.47;;
20988;SDS011;10653;47.052;15.410;2023-09-19T15:11:16;3.50;;;1.77;;
20988;SDS011;10653;47.052;15.410;2023-09-19T15:13:43;3.10;;;1.77;;
20988;SDS011;10653;47.052;15.410;2023-09-19T15:16:09;1.70;;;1.30;;
20988;SDS011;10653;47.052;15.410;2023-09-19T15:18:37;2.73;;;1.90;;
20988;SDS011;10653;47.052;15.410;2023-09-19T15:21:04;1.97;;;1.50;;
20988;SDS011;10653;47.052;15.410;2023-09-19T15:23:31;2.77;;;1.63;;
20988;SDS011;10653;47.052;15.410;2023-09-19T15:26:02;3.40;;;2.13;;
20988;SDS011;10653;47.052;15.410;2023-09-19T15:28:29;1.77;;;1.53;;
20988;SDS011;10653;47.052;15.410;2023-09-19T15:31:00;2.73;;;1.80;;
20988;SDS011;10653;47.052;15.410;2023-09-19T15:33:27;3.43;;;2.20;;
20988;SDS011;10653;47.052;15.410;2023-09-19T15:36:26;2.50;;;1.83;;
20988;SDS011;10653;47.052;15.410;2023-09-19T15:41:30;2.07;;;1.77;;
20988;SDS011;10653;47.052;15.410;2023-09-19T15:43:57;4.83;;;2.17;;